• Join FlightAware (Why Join?)
  • Login
  • US Flag 
05:14AM EDT


 

Airport Tracker/Info


-or-


 

Live Flight TrackerFlight Track Log ✈ N210FT ✈ 24-Oct-2013 ✈ KCOI - KOBE

Flight Track Log - Related Links

Times and Time Zones

All times are in EDT time to prevent confusion due to time zone crossing. See the N210FT flight status page for this flight to view local times or setup timezone preferences in your user account.

Time Position Orientation Groundspeed Altitude Reporting Facility
EDT Latitude Longitude Course Direction KTS MPH feet Rate Location/Type
07:32AM 28.2167 -80.8167 186° South 93 107 4,700  Level Orlando TRACON
07:33AM 28.2000 -80.8333 221° Southwest 93 107 4,700 -60 Level Orlando TRACON
07:34AM 28.1667 -80.8333 180° South 101 116 4,600 -120 Descending Orlando TRACON
07:36AM 28.1244 -80.8422 191° South 89 102 4,400 -60 Descending Miami Center
07:37AM 28.0992 -80.8439 183° South 89 102 4,500 60 Climbing Miami Center
07:38AM 28.1564 -80.7064 186° South  Level FlightAware Approximate
07:38AM 28.0783 -80.8431 178° South 84 97 4,600  Level Miami Center
07:39AM 28.0492 -80.8419 178° South 94 108 4,500 -120 Descending Miami Center
07:40AM 28.0264 -80.8411 178° South 94 108 4,400 -60 Descending Miami Center
07:41AM 28.0033 -80.8406 179° South 81 93 4,400 60 Level Miami Center
07:42AM 27.9889 -80.8375 169° South 76 87 4,600 60 Climbing Miami Center
07:43AM 27.9681 -80.8344 173° South 71 82 4,600  Level Miami Center
07:44AM 27.9431 -80.8311 173° South 78 90 4,600 -60 Level Miami Center
07:45AM 27.9181 -80.8281 174° South 89 102 4,500 -60 Descending Miami Center
07:46AM 27.8953 -80.8250 173° South 89 102 4,500  Level Miami Center
07:47AM 27.8744 -80.8217 172° South 84 97 4,500  Level Miami Center
07:48AM 27.8536 -80.8186 173° South 84 97 4,500  Level Miami Center
07:49AM 27.8350 -80.8158 172° South 84 97 4,500  Level Miami Center
07:50AM 27.8142 -80.8128 173° South 77 89 4,500  Level Miami Center
07:51AM 27.7956 -80.8097 172° South 71 82 4,500  Level Miami Center
07:52AM 27.7747 -80.8089 178° South 71 82 4,600 60 Climbing Miami Center
07:53AM 27.7558 -80.8058 172° South 71 82 4,700  Climbing Miami Center
07:54AM 27.7331 -80.8028 173° South 76 87 4,700 -60 Level Miami Center
07:55AM 27.7081 -80.7972 169° South 90 104 4,600 -120 Descending Miami Center
07:56AM 27.6833 -80.7917 169° South 85 98 4,500  Descending Miami Center
07:57AM 27.6603 -80.7886 173° South 85 98 4,600  Climbing Miami Center
07:58AM 27.6375 -80.7831 168° South 85 98 4,600  Level Miami Center
07:59AM 27.6147 -80.7800 173° South 95 109 4,600  Level Miami Center
08:00AM 27.5897 -80.7769 174° South 95 109 4,600  Level Miami Center
08:01AM 27.5625 -80.7758 178° South 89 102 4,600 -60 Level Miami Center
08:02AM 27.5375 -80.7797 188° South 89 102 4,500 -60 Descending Miami Center
08:03AM 27.5164 -80.7883 200° South 89 102 4,500  Level Miami Center
08:04AM 27.4933 -80.7947 194° South 89 102 4,500  Level Miami Center
08:05AM 27.4703 -80.7939 178° South 89 102 4,600  Climbing Miami Center
08:06AM 27.4453 -80.7975 187° South 89 102 4,500 -120 Descending Miami Center
08:07AM 27.4219 -80.8086 203° Southwest 89 102 4,400 -120 Descending Miami Center